sensor_id;sensor_type;location;lat;lon;timestamp;pressure;altitude;pressure_sealevel;temperature;humidity
49723;BME280;43484;43.608;1.458;2023-02-19T00:01:42;100969.22;;;10.10;100.00
49723;BME280;43484;43.608;1.458;2023-02-19T00:04:13;100960.31;;;10.03;100.00
49723;BME280;43484;43.608;1.458;2023-02-19T00:06:40;100958.00;;;10.08;100.00
49723;BME280;43484;43.608;1.458;2023-02-19T00:09:12;100958.56;;;10.02;100.00
49723;BME280;43484;43.608;1.458;2023-02-19T00:11:40;100954.84;;;9.96;100.00
49723;BME280;43484;43.608;1.458;2023-02-19T00:14:07;100958.47;;;9.83;100.00
49723;BME280;43484;43.608;1.458;2023-02-19T00:16:37;100948.06;;;9.80;100.00
49723;BME280;43484;43.608;1.458;2023-02-19T00:19:06;100946.22;;;9.78;100.00
49723;BME280;43484;43.608;1.458;2023-02-19T00:21:33;100948.34;;;9.69;100.00
49723;BME280;43484;43.608;1.458;2023-02-19T00:24:02;100939.63;;;9.65;100.00
49723;BME280;43484;43.608;1.458;2023-02-19T00:26:29;100935.78;;;9.73;100.00
49723;BME280;43484;43.608;1.458;2023-02-19T00:28:57;100923.94;;;9.75;100.00
49723;BME280;43484;43.608;1.458;2023-02-19T00:31:25;100929.13;;;9.77;100.00
49723;BME280;43484;43.608;1.458;2023-02-19T00:33:55;100926.34;;;9.72;100.00
49723;BME280;43484;43.608;1.458;2023-02-19T00:36:22;100925.53;;;9.73;100.00
49723;BME280;43484;43.608;1.458;2023-02-19T00:38:50;100925.31;;;9.69;100.00
49723;BME280;43484;43.608;1.458;2023-02-19T00:41:18;100921.16;;;9.71;100.00
49723;BME280;43484;43.608;1.458;2023-02-19T00:43:46;100919.38;;;9.70;100.00
49723;BME280;43484;43.608;1.458;2023-02-19T00:46:17;100915.69;;;9.81;100.00
49723;BME280;43484;43.608;1.458;2023-02-19T00:48:45;100917.72;;;9.70;100.00
49723;BME280;43484;43.608;1.458;2023-02-19T00:51:12;100919.31;;;9.68;100.00
49723;BME280;43484;43.608;1.458;2023-02-19T00:53:39;100918.69;;;9.56;100.00
49723;BME280;43484;43.608;1.458;2023-02-19T00:56:06;100909.28;;;9.55;100.00
49723;BME280;43484;43.608;1.458;2023-02-19T00:58:34;100911.97;;;9.58;100.00
49723;BME280;43484;43.608;1.458;2023-02-19T01:01:00;100912.53;;;9.53;100.00
49723;BME280;43484;43.608;1.458;2023-02-19T01:03:31;100902.78;;;9.62;100.00
49723;BME280;43484;43.608;1.458;2023-02-19T01:05:57;100913.66;;;9.58;100.00
49723;BME280;43484;43.608;1.458;2023-02-19T01:08:24;100917.91;;;9.57;100.00
49723;BME280;43484;43.608;1.458;2023-02-19T01:10:51;100918.88;;;9.43;100.00
49723;BME280;43484;43.608;1.458;2023-02-19T01:13:18;100911.53;;;9.49;100.00
49723;BME280;43484;43.608;1.458;2023-02-19T01:15:44;100910.50;;;9.46;100.00
49723;BME280;43484;43.608;1.458;2023-02-19T01:18:11;100912.53;;;9.53;100.00
49723;BME280;43484;43.608;1.458;2023-02-19T01:20:43;100920.06;;;9.50;100.00
49723;BME280;43484;43.608;1.458;2023-02-19T01:23:11;100924.53;;;9.54;100.00
49723;BME280;43484;43.608;1.458;2023-02-19T01:25:41;100931.09;;;9.49;100.00
49723;BME280;43484;43.608;1.458;2023-02-19T01:28:09;100940.16;;;9.42;100.00
49723;BME280;43484;43.608;1.458;2023-02-19T01:30:37;100935.50;;;9.35;100.00
49723;BME280;43484;43.608;1.458;2023-02-19T01:33:05;100940.31;;;9.29;100.00
49723;BME280;43484;43.608;1.458;2023-02-19T01:35:33;100929.44;;;9.33;100.00
49723;BME280;43484;43.608;1.458;2023-02-19T01:38:00;100928.72;;;9.36;100.00
49723;BME280;43484;43.608;1.458;2023-02-19T01:40:26;100932.81;;;9.32;100.00
49723;BME280;43484;43.608;1.458;2023-02-19T01:42:53;100925.75;;;9.28;100.00
49723;BME280;43484;43.608;1.458;2023-02-19T01:47:54;100924.75;;;9.09;100.00
49723;BME280;43484;43.608;1.458;2023-02-19T01:50:22;100924.41;;;9.19;100.00
49723;BME280;43484;43.608;1.458;2023-02-19T01:52:51;100917.16;;;9.10;100.00
49723;BME280;43484;43.608;1.458;2023-02-19T01:55:18;100914.59;;;9.10;100.00
49723;BME280;43484;43.608;1.458;2023-02-19T01:57:47;100908.66;;;9.11;100.00
49723;BME280;43484;43.608;1.458;2023-02-19T02:00:17;100920.97;;;9.18;100.00
49723;BME280;43484;43.608;1.458;2023-02-19T02:02:49;100920.34;;;9.06;100.00
49723;BME280;43484;43.608;1.458;2023-02-19T02:05:23;100907.88;;;8.96;100.00
49723;BME280;43484;43.608;1.458;2023-02-19T02:07:50;100900.94;;;8.94;100.00
49723;BME280;43484;43.608;1.458;2023-02-19T02:10:36;100894.00;;;9.07;100.00
49723;BME280;43484;43.608;1.458;2023-02-19T02:13:03;100903.94;;;9.03;100.00
49723;BME280;43484;43.608;1.458;2023-02-19T02:15:43;100907.88;;;8.96;100.00
49723;BME280;43484;43.608;1.458;2023-02-19T02:32:24;100884.56;;;8.74;100.00
49723;BME280;43484;43.608;1.458;2023-02-19T02:35:09;100884.94;;;8.65;100.00
49723;BME280;43484;43.608;1.458;2023-02-19T02:37:40;100883.34;;;8.67;100.00
49723;BME280;43484;43.608;1.458;2023-02-19T02:40:09;100884.66;;;8.75;100.00
49723;BME280;43484;43.608;1.458;2023-02-19T02:42:38;100881.44;;;8.79;100.00
49723;BME280;43484;43.608;1.458;2023-02-19T02:48:17;100890.88;;;8.80;100.00
49723;BME280;43484;43.608;1.458;2023-02-19T02:50:49;100889.69;;;8.74;100.00
49723;BME280;43484;43.608;1.458;2023-02-19T02:53:28;100880.47;;;8.77;100.00
49723;BME280;43484;43.608;1.458;2023-02-19T02:56:17;100882.16;;;8.77;100.00
49723;BME280;43484;43.608;1.458;2023-02-19T02:58:45;100881.59;;;8.66;100.00
49723;BME280;43484;43.608;1.458;2023-02-19T03:01:20;100872.66;;;8.58;100.00
49723;BME280;43484;43.608;1.458;2023-02-19T03:04:12;100875.81;;;8.54;100.00
49723;BME280;43484;43.608;1.458;2023-02-19T03:06:40;100876.25;;;8.62;100.00
49723;BME280;43484;43.608;1.458;2023-02-19T03:09:15;100875.34;;;8.61;100.00
49723;BME280;43484;43.608;1.458;2023-02-19T03:11:48;100876.47;;;8.66;100.00
49723;BME280;43484;43.608;1.458;2023-02-19T03:14:40;100875.16;;;8.42;100.00
49723;BME280;43484;43.608;1.458;2023-02-19T03:17:34;100873.03;;;8.50;100.00
49723;BME280;43484;43.608;1.458;2023-02-19T03:20:22;100867.03;;;8.49;100.00
49723;BME280;43484;43.608;1.458;2023-02-19T03:22:51;100867.38;;;8.55;100.00
49723;BME280;43484;43.608;1.458;2023-02-19T03:25:24;100866.72;;;8.43;100.00
49723;BME280;43484;43.608;1.458;2023-02-19T03:28:12;100862.31;;;8.41;100.00
49723;BME280;43484;43.608;1.458;2023-02-19T03:30:46;100857.03;;;8.38;100.00
49723;BME280;43484;43.608;1.458;2023-02-19T03:33:18;100861.84;;;8.48;100.00
49723;BME280;43484;43.608;1.458;2023-02-19T03:35:52;100864.78;;;8.39;100.00
49723;BME280;43484;43.608;1.458;2023-02-19T03:38:26;100863.94;;;8.24;100.00
49723;BME280;43484;43.608;1.458;2023-02-19T03:41:06;100869.66;;;8.20;100.00
49723;BME280;43484;43.608;1.458;2023-02-19T03:46:11;100856.22;;;8.08;100.00
49723;BME280;43484;43.608;1.458;2023-02-19T03:49:00;100855.56;;;8.12;100.00
49723;BME280;43484;43.608;1.458;2023-02-19T03:51:38;100858.13;;;8.12;100.00
49723;BME280;43484;43.608;1.458;2023-02-19T03:54:10;100852.16;;;8.12;100.00
49723;BME280;43484;43.608;1.458;2023-02-19T03:56:49;100852.34;;;8.15;100.00
49723;BME280;43484;43.608;1.458;2023-02-19T04:01:57;100857.72;;;8.05;100.00
49723;BME280;43484;43.608;1.458;2023-02-19T04:04:48;100851.41;;;7.98;100.00
49723;BME280;43484;43.608;1.458;2023-02-19T04:07:12;100851.94;;;7.93;100.00
49723;BME280;43484;43.608;1.458;2023-02-19T04:09:43;100847.63;;;7.92;100.00
49723;BME280;43484;43.608;1.458;2023-02-19T04:12:11;100844.53;;;7.97;100.00
49723;BME280;43484;43.608;1.458;2023-02-19T04:14:58;100843.09;;;8.02;100.00
49723;BME280;43484;43.608;1.458;2023-02-19T04:17:36;100850.75;;;8.02;100.00
49723;BME280;43484;43.608;1.458;2023-02-19T04:20:07;100857.41;;;7.99;100.00
49723;BME280;43484;43.608;1.458;2023-02-19T04:22:35;100867.66;;;8.15;100.00
49723;BME280;43484;43.608;1.458;2023-02-19T04:25:03;100867.78;;;8.02;100.00
49723;BME280;43484;43.608;1.458;2023-02-19T04:27:30;100874.72;;;7.90;100.00
49723;BME280;43484;43.608;1.458;2023-02-19T04:29:56;100875.69;;;7.92;100.00
49723;BME280;43484;43.608;1.458;2023-02-19T04:32:23;100868.22;;;7.95;100.00
49723;BME280;43484;43.608;1.458;2023-02-19T04:34:49;100864.44;;;7.88;100.00
49723;BME280;43484;43.608;1.458;2023-02-19T04:37:19;100869.19;;;7.82;100.00
49723;BME280;43484;43.608;1.458;2023-02-19T04:39:45;100864.19;;;7.84;100.00
49723;BME280;43484;43.608;1.458;2023-02-19T04:42:12;100869.03;;;7.94;100.00
49723;BME280;43484;43.608;1.458;2023-02-19T04:44:39;100869.63;;;7.90;100.00
49723;BME280;43484;43.608;1.458;2023-02-19T04:47:06;100870.59;;;7.77;100.00
49723;BME280;43484;43.608;1.458;2023-02-19T04:49:33;100876.16;;;7.70;100.00
49723;BME280;43484;43.608;1.458;2023-02-19T04:52:00;100872.09;;;7.88;100.00
49723;BME280;43484;43.608;1.458;2023-02-19T04:54:26;100881.06;;;7.82;100.00
49723;BME280;43484;43.608;1.458;2023-02-19T04:56:53;100882.81;;;7.83;100.00
49723;BME280;43484;43.608;1.458;2023-02-19T04:59:19;100890.41;;;7.67;100.00
49723;BME280;43484;43.608;1.458;2023-02-19T05:01:46;100876.59;;;7.63;100.00
49723;BME280;43484;43.608;1.458;2023-02-19T05:04:13;100881.69;;;7.63;100.00
49723;BME280;43484;43.608;1.458;2023-02-19T05:06:39;100881.06;;;7.67;100.00
49723;BME280;43484;43.608;1.458;2023-02-19T05:09:06;100886.78;;;7.48;100.00
49723;BME280;43484;43.608;1.458;2023-02-19T05:11:33;100878.88;;;7.29;100.00
49723;BME280;43484;43.608;1.458;2023-02-19T05:13:59;100866.63;;;7.38;100.00
49723;BME280;43484;43.608;1.458;2023-02-19T05:16:26;100871.84;;;7.54;100.00
49723;BME280;43484;43.608;1.458;2023-02-19T05:18:53;100868.88;;;7.61;100.00
49723;BME280;43484;43.608;1.458;2023-02-19T05:21:19;100867.63;;;7.55;100.00
49723;BME280;43484;43.608;1.458;2023-02-19T05:23:46;100871.94;;;7.56;100.00
49723;BME280;43484;43.608;1.458;2023-02-19T05:26:15;100883.38;;;7.48;100.00
49723;BME280;43484;43.608;1.458;2023-02-19T05:28:49;100880.00;;;7.49;100.00
49723;BME280;43484;43.608;1.458;2023-02-19T05:31:16;100884.34;;;7.50;100.00
49723;BME280;43484;43.608;1.458;2023-02-19T05:33:43;100884.44;;;7.51;100.00
49723;BME280;43484;43.608;1.458;2023-02-19T05:36:12;100888.47;;;7.48;100.00
49723;BME280;43484;43.608;1.458;2023-02-19T05:38:39;100893.66;;;7.49;100.00
49723;BME280;43484;43.608;1.458;2023-02-19T05:41:14;100886.34;;;7.41;100.00
49723;BME280;43484;43.608;1.458;2023-02-19T05:43:42;100887.75;;;7.36;100.00
49723;BME280;43484;43.608;1.458;2023-02-19T05:46:11;100886.78;;;7.34;100.00
49723;BME280;43484;43.608;1.458;2023-02-19T05:48:38;100884.66;;;7.27;100.00
49723;BME280;43484;43.608;1.458;2023-02-19T05:51:07;100880.19;;;7.37;100.00
49723;BME280;43484;43.608;1.458;2023-02-19T05:53:35;100886.34;;;7.41;100.00
49723;BME280;43484;43.608;1.458;2023-02-19T05:56:02;100897.22;;;7.38;100.00
49723;BME280;43484;43.608;1.458;2023-02-19T05:58:29;100903.28;;;7.40;100.00
49723;BME280;43484;43.608;1.458;2023-02-19T06:00:56;100901.47;;;7.38;100.00
49723;BME280;43484;43.608;1.458;2023-02-19T06:03:23;100904.09;;;7.39;100.00
49723;BME280;43484;43.608;1.458;2023-02-19T06:05:50;100896.63;;;7.42;100.00
49723;BME280;43484;43.608;1.458;2023-02-19T06:08:16;100904.28;;;7.42;100.00
49723;BME280;43484;43.608;1.458;2023-02-19T06:10:43;100896.53;;;7.41;100.00
49723;BME280;43484;43.608;1.458;2023-02-19T06:13:10;100904.34;;;7.29;100.00
49723;BME280;43484;43.608;1.458;2023-02-19T06:15:37;100898.44;;;7.30;100.00
49723;BME280;43484;43.608;1.458;2023-02-19T06:18:04;100901.09;;;7.32;100.00
49723;BME280;43484;43.608;1.458;2023-02-19T06:20:30;100909.53;;;7.31;100.00
49723;BME280;43484;43.608;1.458;2023-02-19T06:22:58;100905.25;;;7.30;100.00
49723;BME280;43484;43.608;1.458;2023-02-19T06:25:25;100915.22;;;7.27;100.00
49723;BME280;43484;43.608;1.458;2023-02-19T06:27:51;100913.31;;;7.23;100.00
49723;BME280;43484;43.608;1.458;2023-02-19T06:30:18;100910.84;;;7.24;100.00
49723;BME280;43484;43.608;1.458;2023-02-19T06:32:44;100919.41;;;7.12;100.00
49723;BME280;43484;43.608;1.458;2023-02-19T06:35:12;100912.53;;;6.96;100.00
49723;BME280;43484;43.608;1.458;2023-02-19T06:37:38;100910.66;;;6.94;100.00
49723;BME280;43484;43.608;1.458;2023-02-19T06:40:05;100907.75;;;6.88;100.00
49723;BME280;43484;43.608;1.458;2023-02-19T06:42:32;100906.03;;;7.01;100.00
49723;BME280;43484;43.608;1.458;2023-02-19T06:44:59;100907.13;;;7.05;100.00
49723;BME280;43484;43.608;1.458;2023-02-19T06:47:25;100913.78;;;7.03;100.00
49723;BME280;43484;43.608;1.458;2023-02-19T06:49:52;100918.06;;;7.04;100.00
49723;BME280;43484;43.608;1.458;2023-02-19T06:52:18;100930.72;;;7.02;100.00
49723;BME280;43484;43.608;1.458;2023-02-19T06:54:45;100930.63;;;7.01;100.00
49723;BME280;43484;43.608;1.458;2023-02-19T06:57:12;100929.38;;;6.94;100.00
49723;BME280;43484;43.608;1.458;2023-02-19T06:59:38;100932.59;;;7.05;100.00
49723;BME280;43484;43.608;1.458;2023-02-19T07:02:05;100937.94;;;7.09;100.00
49723;BME280;43484;43.608;1.458;2023-02-19T07:04:32;100949.25;;;7.27;100.00
49723;BME280;43484;43.608;1.458;2023-02-19T07:06:59;100949.56;;;7.19;100.00
49723;BME280;43484;43.608;1.458;2023-02-19T07:09:25;100956.63;;;7.23;100.00
49723;BME280;43484;43.608;1.458;2023-02-19T07:11:53;100972.22;;;7.14;100.00
49723;BME280;43484;43.608;1.458;2023-02-19T07:14:20;100976.84;;;7.07;100.00
49723;BME280;43484;43.608;1.458;2023-02-19T07:16:47;100974.28;;;7.07;100.00
49723;BME280;43484;43.608;1.458;2023-02-19T07:19:15;100986.75;;;7.02;100.00
49723;BME280;43484;43.608;1.458;2023-02-19T07:21:41;100990.97;;;7.02;100.00
49723;BME280;43484;43.608;1.458;2023-02-19T07:24:09;100992.56;;;7.00;100.00
49723;BME280;43484;43.608;1.458;2023-02-19T07:26:35;101006.56;;;7.06;100.00
49723;BME280;43484;43.608;1.458;2023-02-19T07:29:02;101007.22;;;7.04;100.00
49723;BME280;43484;43.608;1.458;2023-02-19T07:31:29;101003.88;;;7.18;100.00
49723;BME280;43484;43.608;1.458;2023-02-19T07:33:56;101005.94;;;7.10;100.00
49723;BME280;43484;43.608;1.458;2023-02-19T07:36:23;101015.47;;;7.13;100.00
49723;BME280;43484;43.608;1.458;2023-02-19T07:38:57;101015.47;;;7.13;100.00
49723;BME280;43484;43.608;1.458;2023-02-19T07:41:25;101009.59;;;7.01;100.00
49723;BME280;43484;43.608;1.458;2023-02-19T07:43:52;101005.09;;;7.10;100.00
49723;BME280;43484;43.608;1.458;2023-02-19T07:46:20;101012.59;;;7.08;100.00
49723;BME280;43484;43.608;1.458;2023-02-19T07:48:47;101010.22;;;7.24;100.00
49723;BME280;43484;43.608;1.458;2023-02-19T07:51:17;101019.72;;;7.27;100.00
49723;BME280;43484;43.608;1.458;2023-02-19T07:53:47;101024.09;;;7.15;100.00
49723;BME280;43484;43.608;1.458;2023-02-19T07:56:16;101031.91;;;7.18;100.00
49723;BME280;43484;43.608;1.458;2023-02-19T07:58:43;101037.69;;;7.15;100.00
49723;BME280;43484;43.608;1.458;2023-02-19T08:01:19;101032.66;;;7.30;100.00
49723;BME280;43484;43.608;1.458;2023-02-19T08:04:11;101041.25;;;7.32;100.00
49723;BME280;43484;43.608;1.458;2023-02-19T08:06:38;101052.84;;;7.27;100.00
49723;BME280;43484;43.608;1.458;2023-02-19T08:09:04;101050.69;;;7.33;100.00
49723;BME280;43484;43.608;1.458;2023-02-19T08:11:31;101050.38;;;7.28;100.00
49723;BME280;43484;43.608;1.458;2023-02-19T08:14:17;101054.53;;;7.26;100.00
49723;BME280;43484;43.608;1.458;2023-02-19T08:16:49;101058.78;;;7.40;100.00
49723;BME280;43484;43.608;1.458;2023-02-19T08:19:17;101062.34;;;7.57;100.00
49723;BME280;43484;43.608;1.458;2023-02-19T08:21:44;101067.75;;;7.61;100.00
49723;BME280;43484;43.608;1.458;2023-02-19T08:24:10;101075.09;;;7.57;100.00
49723;BME280;43484;43.608;1.458;2023-02-19T08:26:37;101076.34;;;7.63;100.00
49723;BME280;43484;43.608;1.458;2023-02-19T08:29:05;101076.66;;;7.68;100.00
49723;BME280;43484;43.608;1.458;2023-02-19T08:31:32;101086.75;;;7.67;100.00
49723;BME280;43484;43.608;1.458;2023-02-19T08:33:59;101090.09;;;7.65;100.00
49723;BME280;43484;43.608;1.458;2023-02-19T08:36:26;101094.03;;;7.60;100.00
49723;BME280;43484;43.608;1.458;2023-02-19T08:38:53;101093.16;;;7.60;100.00
49723;BME280;43484;43.608;1.458;2023-02-19T08:41:19;101087.22;;;7.74;100.00
49723;BME280;43484;43.608;1.458;2023-02-19T08:43:46;101094.28;;;7.78;100.00
49723;BME280;43484;43.608;1.458;2023-02-19T08:46:13;101089.59;;;7.71;100.00
49723;BME280;43484;43.608;1.458;2023-02-19T08:48:39;101093.19;;;7.75;100.00
49723;BME280;43484;43.608;1.458;2023-02-19T08:51:08;101086.38;;;7.88;100.00
49723;BME280;43484;43.608;1.458;2023-02-19T08:53:37;101095.53;;;7.99;100.00
49723;BME280;43484;43.608;1.458;2023-02-19T08:56:06;101098.91;;;8.13;100.00
49723;BME280;43484;43.608;1.458;2023-02-19T08:58:36;101096.59;;;8.30;100.00
49723;BME280;43484;43.608;1.458;2023-02-19T09:01:11;101103.09;;;8.40;100.00
49723;BME280;43484;43.608;1.458;2023-02-19T09:03:39;101103.09;;;8.40;100.00
49723;BME280;43484;43.608;1.458;2023-02-19T09:06:08;101108.56;;;8.46;100.00
49723;BME280;43484;43.608;1.458;2023-02-19T09:08:37;101107.44;;;8.55;100.00
49723;BME280;43484;43.608;1.458;2023-02-19T09:11:04;101122.81;;;8.42;100.00
49723;BME280;43484;43.608;1.458;2023-02-19T09:13:32;101129.06;;;8.33;100.00
49723;BME280;43484;43.608;1.458;2023-02-19T09:15:58;101120.97;;;8.54;100.00
49723;BME280;43484;43.608;1.458;2023-02-19T09:18:25;101125.22;;;8.68;100.00
49723;BME280;43484;43.608;1.458;2023-02-19T09:20:52;101132.16;;;8.71;100.00
49723;BME280;43484;43.608;1.458;2023-02-19T09:23:19;101128.91;;;8.73;100.00
49723;BME280;43484;43.608;1.458;2023-02-19T09:25:45;101146.00;;;8.74;100.00
49723;BME280;43484;43.608;1.458;2023-02-19T09:28:12;101149.34;;;8.73;100.00
49723;BME280;43484;43.608;1.458;2023-02-19T09:30:39;101152.88;;;8.75;100.00
49723;BME280;43484;43.608;1.458;2023-02-19T09:33:05;101147.66;;;8.88;100.00
49723;BME280;43484;43.608;1.458;2023-02-19T09:35:32;101153.91;;;8.94;100.00
49723;BME280;43484;43.608;1.458;2023-02-19T09:37:59;101160.25;;;9.00;100.00
49723;BME280;43484;43.608;1.458;2023-02-19T09:40:28;101159.88;;;9.09;100.00
49723;BME280;43484;43.608;1.458;2023-02-19T09:42:55;101165.25;;;9.13;100.00
49723;BME280;43484;43.608;1.458;2023-02-19T09:45:24;101175.56;;;9.15;100.00
49723;BME280;43484;43.608;1.458;2023-02-19T09:47:53;101174.13;;;9.20;100.00
49723;BME280;43484;43.608;1.458;2023-02-19T09:50:26;101167.59;;;9.25;100.00
49723;BME280;43484;43.608;1.458;2023-02-19T09:52:55;101163.72;;;9.31;100.00
49723;BME280;43484;43.608;1.458;2023-02-19T09:55:32;101161.75;;;9.42;100.00
49723;BME280;43484;43.608;1.458;2023-02-19T09:58:13;101167.84;;;9.44;100.00
49723;BME280;43484;43.608;1.458;2023-02-19T10:00:47;101169.28;;;9.55;100.00
49723;BME280;43484;43.608;1.458;2023-02-19T10:05:51;101185.31;;;9.67;100.00
49723;BME280;43484;43.608;1.458;2023-02-19T10:08:19;101183.06;;;9.73;100.00
49723;BME280;43484;43.608;1.458;2023-02-19T10:10:47;101187.69;;;9.94;100.00
49723;BME280;43484;43.608;1.458;2023-02-19T10:13:18;101194.16;;;10.04;100.00
49723;BME280;43484;43.608;1.458;2023-02-19T10:15:54;101202.81;;;10.06;100.00
49723;BME280;43484;43.608;1.458;2023-02-19T10:18:24;101201.22;;;10.08;100.00
49723;BME280;43484;43.608;1.458;2023-02-19T10:20:55;101198.47;;;10.20;100.00
49723;BME280;43484;43.608;1.458;2023-02-19T10:23:23;101194.59;;;10.44;100.00
49723;BME280;43484;43.608;1.458;2023-02-19T10:25:56;101200.81;;;10.49;100.00
49723;BME280;43484;43.608;1.458;2023-02-19T10:28:29;101198.59;;;10.39;100.00
49723;BME280;43484;43.608;1.458;2023-02-19T10:30:58;101208.34;;;10.46;100.00
49723;BME280;43484;43.608;1.458;2023-02-19T10:33:26;101203.53;;;10.52;100.00
49723;BME280;43484;43.608;1.458;2023-02-19T10:36:03;101198.06;;;10.62;100.00
49723;BME280;43484;43.608;1.458;2023-02-19T10:38:37;101190.66;;;10.66;100.00
49723;BME280;43484;43.608;1.458;2023-02-19T10:41:05;101189.53;;;10.61;100.00
49723;BME280;43484;43.608;1.458;2023-02-19T10:43:37;101187.00;;;10.79;100.00
49723;BME280;43484;43.608;1.458;2023-02-19T10:46:16;101185.69;;;10.87;100.00
49723;BME280;43484;43.608;1.458;2023-02-19T10:48:58;101186.22;;;10.97;100.00
49723;BME280;43484;43.608;1.458;2023-02-19T10:51:38;101184.06;;;11.05;100.00
49723;BME280;43484;43.608;1.458;2023-02-19T10:54:26;101186.59;;;11.22;100.00
49723;BME280;43484;43.608;1.458;2023-02-19T10:59:53;101186.38;;;11.35;100.00
49723;BME280;43484;43.608;1.458;2023-02-19T11:02:23;101182.22;;;11.55;100.00
49723;BME280;43484;43.608;1.458;2023-02-19T11:07:36;101189.09;;;11.74;100.00
49723;BME280;43484;43.608;1.458;2023-02-19T11:10:04;101185.06;;;11.79;100.00
49723;BME280;43484;43.608;1.458;2023-02-19T11:12:33;101196.28;;;12.00;100.00
49723;BME280;43484;43.608;1.458;2023-02-19T11:17:53;101192.94;;;12.20;100.00
49723;BME280;43484;43.608;1.458;2023-02-19T11:20:20;101191.56;;;12.28;100.00
49723;BME280;43484;43.608;1.458;2023-02-19T11:22:47;101187.50;;;12.33;100.00
49723;BME280;43484;43.608;1.458;2023-02-19T11:28:05;101172.56;;;12.43;100.00
49723;BME280;43484;43.608;1.458;2023-02-19T11:30:35;101156.66;;;12.52;100.00
49723;BME280;43484;43.608;1.458;2023-02-19T11:38:50;101155.72;;;12.50;100.00
49723;BME280;43484;43.608;1.458;2023-02-19T11:44:23;101143.69;;;12.90;100.00
49723;BME280;43484;43.608;1.458;2023-02-19T11:50:02;101144.28;;;13.04;100.00
49723;BME280;43484;43.608;1.458;2023-02-19T11:52:41;101137.06;;;12.95;100.00
49723;BME280;43484;43.608;1.458;2023-02-19T11:55:33;101130.91;;;12.71;100.00
49723;BME280;43484;43.608;1.458;2023-02-19T11:58:22;101131.22;;;12.99;100.00
49723;BME280;43484;43.608;1.458;2023-02-19T12:06:25;101115.72;;;13.18;100.00
49723;BME280;43484;43.608;1.458;2023-02-19T12:12:17;101097.66;;;13.39;100.00
49723;BME280;43484;43.608;1.458;2023-02-19T12:23:15;101087.25;;;13.58;100.00
49723;BME280;43484;43.608;1.458;2023-02-19T12:48:28;101046.50;;;14.19;100.00
49723;BME280;43484;43.608;1.458;2023-02-19T12:51:15;101036.00;;;14.13;100.00
49723;BME280;43484;43.608;1.458;2023-02-19T12:54:00;101046.19;;;14.10;100.00
49723;BME280;43484;43.608;1.458;2023-02-19T12:56:35;101048.63;;;14.55;100.00
49723;BME280;43484;43.608;1.458;2023-02-19T12:59:13;101037.41;;;14.53;100.00
49723;BME280;43484;43.608;1.458;2023-02-19T13:01:49;101029.50;;;14.49;100.00
49723;BME280;43484;43.608;1.458;2023-02-19T13:06:52;101024.44;;;14.52;100.00
49723;BME280;43484;43.608;1.458;2023-02-19T13:09:25;101009.09;;;14.55;100.00
49723;BME280;43484;43.608;1.458;2023-02-19T13:12:15;101009.53;;;14.68;100.00
49723;BME280;43484;43.608;1.458;2023-02-19T13:14:49;101010.13;;;14.60;100.00
49723;BME280;43484;43.608;1.458;2023-02-19T13:19:50;101001.72;;;14.67;100.00
49723;BME280;43484;43.608;1.458;2023-02-19T13:37:09;100973.91;;;15.13;100.00
49723;BME280;43484;43.608;1.458;2023-02-19T13:39:37;100970.97;;;15.01;100.00
49723;BME280;43484;43.608;1.458;2023-02-19T13:44:57;100965.31;;;15.14;100.00
49723;BME280;43484;43.608;1.458;2023-02-19T13:47:47;100956.56;;;15.09;100.00
49723;BME280;43484;43.608;1.458;2023-02-19T13:50:24;100957.50;;;15.11;100.00
49723;BME280;43484;43.608;1.458;2023-02-19T13:52:53;100953.34;;;15.16;100.00
49723;BME280;43484;43.608;1.458;2023-02-19T13:58:33;100951.44;;;15.39;100.00
49723;BME280;43484;43.608;1.458;2023-02-19T14:01:07;100948.16;;;15.44;100.00
49723;BME280;43484;43.608;1.458;2023-02-19T14:03:44;100947.38;;;15.47;100.00
49723;BME280;43484;43.608;1.458;2023-02-19T14:06:12;100942.88;;;15.40;100.00
49723;BME280;43484;43.608;1.458;2023-02-19T14:08:57;100936.47;;;15.57;100.00
49723;BME280;43484;43.608;1.458;2023-02-19T14:14:39;100934.81;;;15.59;100.00
49723;BME280;43484;43.608;1.458;2023-02-19T14:31:01;100916.97;;;15.69;100.00
49723;BME280;43484;43.608;1.458;2023-02-19T14:33:36;100913.09;;;15.52;100.00
49723;BME280;43484;43.608;1.458;2023-02-19T14:39:29;100911.63;;;15.62;100.00
49723;BME280;43484;43.608;1.458;2023-02-19T14:42:01;100925.31;;;15.59;100.00
49723;BME280;43484;43.608;1.458;2023-02-19T14:44:34;100913.41;;;15.64;100.00
49723;BME280;43484;43.608;1.458;2023-02-19T14:47:07;100915.16;;;15.65;100.00
49723;BME280;43484;43.608;1.458;2023-02-19T14:49:47;100905.81;;;15.70;100.00
49723;BME280;43484;43.608;1.458;2023-02-19T14:52:44;100911.34;;;15.84;100.00
49723;BME280;43484;43.608;1.458;2023-02-19T14:55:42;100902.72;;;15.83;100.00
49723;BME280;43484;43.608;1.458;2023-02-19T14:58:20;100907.81;;;15.80;100.00
49723;BME280;43484;43.608;1.458;2023-02-19T15:00:47;100904.06;;;15.69;100.00
49723;BME280;43484;43.608;1.458;2023-02-19T15:06:00;100900.44;;;15.63;100.00
49723;BME280;43484;43.608;1.458;2023-02-19T15:08:31;100893.72;;;15.69;100.00
49723;BME280;43484;43.608;1.458;2023-02-19T15:11:00;100897.84;;;15.61;100.00
49723;BME280;43484;43.608;1.458;2023-02-19T15:13:29;100897.22;;;15.71;100.00
49723;BME280;43484;43.608;1.458;2023-02-19T15:15:56;100895.50;;;15.70;100.00
49723;BME280;43484;43.608;1.458;2023-02-19T15:18:25;100894.66;;;15.71;100.00
49723;BME280;43484;43.608;1.458;2023-02-19T15:20:59;100892.13;;;15.74;100.00
49723;BME280;43484;43.608;1.458;2023-02-19T15:23:28;100892.84;;;15.67;100.00
49723;BME280;43484;43.608;1.458;2023-02-19T15:25:57;100895.53;;;15.72;100.00